Time;durP1;ratioP1;P1;durP2;ratioP2;P2;SDS_P1;SDS_P2;PMS_P1;PMS_P2;Temp;Humidity;BMP_temperature;BMP_pressure;BME280_temperature;BME280_humidity;BME280_pressure;Samples;Min_cycle;Max_cycle;Signal;HPM_P1;HPM_P2
2022/03/04 00:01:17;;;;;;;69.85;38.83;;;5.30;88.40;;;;;;4968731;28;20501;-74
2022/03/04 00:03:43;;;;;;;68.75;38.45;;;5.30;88.20;;;;;;4968207;28;20066;-74
2022/03/04 00:06:09;;;;;;;72.15;40.15;;;5.40;88.10;;;;;;4973270;28;20085;-74
2022/03/04 00:08:35;;;;;;;63.75;37.63;;;5.50;88.00;;;;;;4968956;28;20088;-74
2022/03/04 00:11:02;;;;;;;64.25;37.72;;;5.50;87.90;;;;;;4973226;28;20027;-74
2022/03/04 00:13:30;;;;;;;69.85;41.22;;;5.30;88.40;;;;;;4972851;28;20053;-74
2022/03/04 00:15:56;;;;;;;69.75;38.90;;;5.40;88.10;;;;;;4972798;28;20532;-75
2022/03/04 00:18:21;;;;;;;68.78;37.78;;;5.40;88.30;;;;;;4968766;28;20030;-75
2022/03/04 00:20:47;;;;;;;66.60;36.67;;;5.50;88.70;;;;;;4967886;28;20113;-75
2022/03/04 00:23:14;;;;;;;69.28;39.83;;;5.40;88.10;;;;;;4973545;28;20027;-75
2022/03/04 00:25:39;;;;;;;67.88;37.78;;;5.30;88.30;;;;;;4972088;28;20515;-74
2022/03/04 00:28:05;;;;;;;62.53;37.53;;;5.20;88.60;;;;;;4973367;28;20114;-75
2022/03/04 00:30:31;;;;;;;66.13;38.22;;;5.10;88.80;;;;;;4972724;28;20481;-75
2022/03/04 00:32:57;;;;;;;71.05;38.90;;;5.30;88.60;;;;;;4973315;28;20167;-75
2022/03/04 00:35:24;;;;;;;75.78;43.72;;;5.30;88.40;;;;;;4966988;28;20039;-75
2022/03/04 00:37:50;;;;;;;72.00;42.88;;;5.50;88.20;;;;;;4971547;28;20034;-75
2022/03/04 00:40:16;;;;;;;74.30;40.90;;;5.50;88.10;;;;;;4968353;28;20031;-75
2022/03/04 00:42:41;;;;;;;72.55;41.30;;;5.50;88.00;;;;;;4970984;28;20448;-74
2022/03/04 00:45:07;;;;;;;76.30;42.35;;;5.50;88.20;;;;;;4972100;28;20089;-77
2022/03/04 00:47:33;;;;;;;71.75;41.92;;;5.50;88.30;;;;;;4970973;28;20106;-75
2022/03/04 00:50:01;;;;;;;73.47;41.92;;;5.50;88.30;;;;;;4970368;28;20149;-75
2022/03/04 00:52:27;;;;;;;73.57;42.28;;;5.50;88.30;;;;;;4971222;28;20616;-75
2022/03/04 00:54:52;;;;;;;69.88;41.35;;;5.50;88.50;;;;;;4969270;28;20121;-75
2022/03/04 00:57:18;;;;;;;67.40;40.83;;;5.40;88.60;;;;;;4967470;28;20034;-75
2022/03/04 00:59:44;;;;;;;62.28;39.22;;;5.40;88.90;;;;;;4971312;28;20035;-75
2022/03/04 01:02:09;;;;;;;65.30;36.78;;;5.20;89.60;;;;;;4971421;28;20045;-75
2022/03/04 01:04:35;;;;;;;59.35;36.05;;;5.10;90.10;;;;;;4970602;28;20027;-75
2022/03/04 01:07:00;;;;;;;61.10;35.65;;;4.80;90.40;;;;;;4971667;28;20046;-75
2022/03/04 01:09:26;;;;;;;68.25;39.05;;;4.60;90.80;;;;;;4970866;28;20039;-75
2022/03/04 01:11:52;;;;;;;62.60;37.67;;;4.70;90.80;;;;;;4971709;28;20093;-75
2022/03/04 01:14:18;;;;;;;66.00;35.38;;;4.70;90.70;;;;;;4970501;28;20042;-75
2022/03/04 01:16:43;;;;;;;62.08;36.72;;;4.90;90.60;;;;;;4971924;28;20424;-75
2022/03/04 01:19:09;;;;;;;63.53;37.92;;;4.80;90.60;;;;;;4969805;28;20042;-75
2022/03/04 01:21:35;;;;;;;75.55;39.33;;;4.60;90.80;;;;;;4969722;28;20033;-74
2022/03/04 01:24:00;;;;;;;77.43;41.08;;;4.70;90.80;;;;;;4971007;28;20031;-75
2022/03/04 01:26:26;;;;;;;75.32;40.47;;;4.70;90.70;;;;;;4971185;28;20126;-75
2022/03/04 01:28:52;;;;;;;70.75;40.10;;;4.50;90.90;;;;;;4971096;28;20030;-75
2022/03/04 01:31:17;;;;;;;76.13;43.05;;;4.50;90.90;;;;;;4970911;28;20121;-74
2022/03/04 01:33:43;;;;;;;72.32;41.45;;;4.80;90.60;;;;;;4971805;28;20043;-75
2022/03/04 01:36:09;;;;;;;72.53;42.20;;;4.80;90.50;;;;;;4970807;28;20476;-75
2022/03/04 01:38:35;;;;;;;69.53;40.72;;;4.90;90.50;;;;;;4969229;28;20470;-75
2022/03/04 01:41:01;;;;;;;70.38;41.67;;;4.90;90.30;;;;;;4970639;28;20473;-75
2022/03/04 01:43:27;;;;;;;69.38;40.45;;;4.90;90.30;;;;;;4971140;28;20065;-75
2022/03/04 01:45:52;;;;;;;72.68;40.78;;;4.80;90.50;;;;;;4970338;28;20512;-75
2022/03/04 01:48:20;;;;;;;75.43;43.53;;;4.80;90.30;;;;;;4971366;28;20027;-75
2022/03/04 01:50:50;;;;;;;74.88;42.53;;;4.80;90.40;;;;;;4970434;28;20034;-75
2022/03/04 01:53:18;;;;;;;74.20;41.60;;;4.80;90.50;;;;;;4969392;28;20066;-75
2022/03/04 01:55:44;;;;;;;74.70;42.67;;;4.70;90.70;;;;;;4968636;28;20031;-74
2022/03/04 01:58:10;;;;;;;72.35;41.88;;;4.70;90.80;;;;;;4969755;28;20039;-76
2022/03/04 02:00:36;;;;;;;69.72;41.80;;;4.70;90.80;;;;;;4968834;28;20099;-75
2022/03/04 02:03:01;;;;;;;73.93;43.53;;;4.80;90.80;;;;;;4970680;28;20080;-75
2022/03/04 02:05:27;;;;;;;70.72;41.25;;;4.80;90.80;;;;;;4970606;28;20183;-75
2022/03/04 02:07:54;;;;;;;76.95;41.95;;;4.80;90.70;;;;;;4967763;28;20140;-75
2022/03/04 02:10:19;;;;;;;78.10;43.25;;;4.70;90.90;;;;;;4971065;28;20122;-74
2022/03/04 02:12:45;;;;;;;76.50;43.60;;;4.70;91.00;;;;;;4970715;28;20125;-75
2022/03/04 02:15:12;;;;;;;71.60;41.80;;;4.70;91.00;;;;;;4971201;28;20051;-75
2022/03/04 02:17:38;;;;;;;73.55;42.55;;;4.60;91.10;;;;;;4970845;28;20038;-74
2022/03/04 02:20:05;;;;;;;83.40;44.28;;;4.40;91.40;;;;;;4971878;28;20062;-75
2022/03/04 02:22:31;;;;;;;68.45;41.88;;;4.40;91.40;;;;;;4973469;28;20505;-74
2022/03/04 02:24:57;;;;;;;70.85;40.75;;;4.60;91.40;;;;;;4974469;28;20114;-74
2022/03/04 02:27:23;;;;;;;72.30;40.42;;;4.80;91.00;;;;;;4974037;28;20117;-75
2022/03/04 02:29:49;;;;;;;72.13;42.67;;;4.70;91.00;;;;;;4971478;28;20478;-76
2022/03/04 02:32:15;;;;;;;77.35;46.08;;;4.80;91.00;;;;;;4974426;28;20053;-75
2022/03/04 02:34:40;;;;;;;76.22;42.95;;;4.70;91.20;;;;;;4974131;28;20070;-74
2022/03/04 02:37:07;;;;;;;77.07;44.20;;;4.70;91.00;;;;;;4973800;28;20050;-75
2022/03/04 02:39:32;;;;;;;78.13;41.95;;;4.70;91.00;;;;;;4974087;28;20049;-75
2022/03/04 02:41:58;;;;;;;77.88;44.33;;;4.70;91.20;;;;;;4974701;28;20026;-75
2022/03/04 02:44:24;;;;;;;78.75;44.00;;;4.70;91.20;;;;;;4973917;28;20445;-75
2022/03/04 02:46:49;;;;;;;72.88;42.53;;;4.70;91.20;;;;;;4974387;28;20039;-74
2022/03/04 02:49:15;;;;;;;73.40;42.97;;;4.70;91.20;;;;;;4973244;28;20023;-74
2022/03/04 02:51:41;;;;;;;71.03;41.95;;;4.70;91.20;;;;;;4972580;28;20405;-75
2022/03/04 02:54:06;;;;;;;72.18;41.00;;;4.70;91.10;;;;;;4972376;28;20101;-75
2022/03/04 02:56:33;;;;;;;70.97;41.47;;;4.60;91.30;;;;;;4967759;28;20046;-74
2022/03/04 02:58:59;;;;;;;78.18;41.20;;;4.50;91.60;;;;;;4973049;28;20039;-75
2022/03/04 03:01:25;;;;;;;70.25;39.08;;;4.40;91.70;;;;;;4974163;28;20046;-75
2022/03/04 03:03:51;;;;;;;70.35;37.80;;;4.20;91.80;;;;;;4971549;28;20496;-75
2022/03/04 03:06:17;;;;;;;60.55;35.80;;;4.00;92.10;;;;;;4972689;28;20047;-74
2022/03/04 03:08:42;;;;;;;63.85;38.25;;;3.70;92.60;;;;;;4973910;28;20693;-75
2022/03/04 03:11:08;;;;;;;66.43;37.72;;;3.80;92.70;;;;;;4973436;28;20477;-75
2022/03/04 03:13:34;;;;;;;67.53;38.72;;;3.80;92.60;;;;;;4973464;28;20350;-74
2022/03/04 03:16:00;;;;;;;69.43;40.10;;;4.00;92.50;;;;;;4973426;28;20400;-75
2022/03/04 03:18:25;;;;;;;72.05;40.65;;;3.90;92.40;;;;;;4973890;28;20038;-75
2022/03/04 03:20:51;;;;;;;70.10;40.42;;;3.90;92.80;;;;;;4970424;28;20113;-75
2022/03/04 03:23:17;;;;;;;75.07;41.15;;;3.90;92.80;;;;;;4973645;28;20034;-75
2022/03/04 03:25:43;;;;;;;73.13;43.20;;;4.00;92.70;;;;;;4973643;28;20069;-75
2022/03/04 03:28:08;;;;;;;78.68;42.92;;;4.00;92.70;;;;;;4972591;28;20066;-74
2022/03/04 03:30:34;;;;;;;76.15;42.67;;;4.00;92.70;;;;;;4972745;28;20391;-75
2022/03/04 03:33:00;;;;;;;76.82;41.47;;;4.10;92.70;;;;;;4966833;28;20400;-74
2022/03/04 03:35:25;;;;;;;75.35;42.55;;;3.90;92.80;;;;;;4973014;28;20042;-74
2022/03/04 03:37:51;;;;;;;81.57;42.55;;;3.80;93.10;;;;;;4972624;28;20034;-75
2022/03/04 03:40:17;;;;;;;80.15;45.72;;;3.80;93.20;;;;;;4972972;28;20081;-75
2022/03/04 03:42:43;;;;;;;78.55;44.42;;;3.80;93.20;;;;;;4971832;28;20390;-75
2022/03/04 03:45:11;;;;;;;78.22;45.22;;;3.90;93.20;;;;;;4973209;28;20031;-74
2022/03/04 03:47:40;;;;;;;80.93;43.20;;;3.80;93.10;;;;;;4973180;28;20053;-74
2022/03/04 03:50:09;;;;;;;79.40;42.25;;;3.80;93.10;;;;;;4972841;28;20074;-75
2022/03/04 03:52:35;;;;;;;74.18;42.05;;;3.70;93.30;;;;;;4972942;28;20108;-74
2022/03/04 03:55:01;;;;;;;76.32;43.20;;;3.60;93.40;;;;;;4972854;28;20053;-75
2022/03/04 03:57:27;;;;;;;70.47;40.13;;;3.60;93.20;;;;;;4972140;28;20030;-75
2022/03/04 03:59:52;;;;;;;75.68;40.53;;;3.40;93.40;;;;;;4973070;28;20405;-75
2022/03/04 04:02:18;;;;;;;72.60;39.58;;;3.50;93.70;;;;;;4971589;28;20050;-73
2022/03/04 04:04:44;;;;;;;71.60;41.25;;;3.40;93.70;;;;;;4963662;28;20069;-73
2022/03/04 04:07:12;;;;;;;76.63;42.25;;;3.40;93.90;;;;;;4965367;28;20051;-74
2022/03/04 04:09:38;;;;;;;81.80;44.88;;;3.70;93.80;;;;;;4964793;28;20505;-74
2022/03/04 04:12:04;;;;;;;78.20;44.22;;;3.70;93.80;;;;;;4965617;28;20030;-74
2022/03/04 04:14:30;;;;;;;77.65;45.15;;;3.70;93.50;;;;;;4964909;28;20620;-74
2022/03/04 04:16:56;;;;;;;73.40;43.53;;;3.80;93.40;;;;;;4962531;28;20371;-74
2022/03/04 04:19:23;;;;;;;73.43;40.92;;;3.70;93.40;;;;;;4963900;28;20039;-73
2022/03/04 04:21:50;;;;;;;78.15;43.42;;;3.70;93.40;;;;;;4965684;28;20058;-74
2022/03/04 04:24:16;;;;;;;78.28;44.80;;;3.60;93.60;;;;;;4968527;28;20030;-73
2022/03/04 04:26:41;;;;;;;79.95;44.13;;;3.50;93.80;;;;;;4967981;28;20449;-73
2022/03/04 04:29:07;;;;;;;73.03;41.75;;;3.50;94.00;;;;;;4967517;28;20039;-73
2022/03/04 04:31:33;;;;;;;77.65;41.00;;;3.70;93.80;;;;;;4967372;28;20039;-73
2022/03/04 04:34:00;;;;;;;82.38;45.33;;;3.70;93.60;;;;;;4966944;28;20039;-73
2022/03/04 04:36:26;;;;;;;86.13;44.97;;;3.70;93.70;;;;;;4968044;28;20039;-73
2022/03/04 04:38:52;;;;;;;84.60;44.65;;;3.60;93.70;;;;;;4965112;28;20117;-73
2022/03/04 04:41:18;;;;;;;69.38;38.53;;;3.60;93.80;;;;;;4967800;28;20126;-74
2022/03/04 04:43:44;;;;;;;82.13;44.30;;;3.60;93.80;;;;;;4967399;28;20037;-74
2022/03/04 04:46:10;;;;;;;79.93;42.00;;;3.70;93.60;;;;;;4966931;28;20706;-73
2022/03/04 04:48:37;;;;;;;75.57;42.65;;;3.70;93.50;;;;;;4964579;28;20031;-73
2022/03/04 04:51:03;;;;;;;79.28;43.78;;;3.70;93.50;;;;;;4961494;28;20094;-74
2022/03/04 04:53:29;;;;;;;72.75;38.75;;;3.60;93.50;;;;;;4964394;28;20038;-74
2022/03/04 04:55:55;;;;;;;73.93;41.53;;;3.50;93.70;;;;;;4963702;28;20030;-74
2022/03/04 04:58:21;;;;;;;78.60;43.08;;;3.60;93.90;;;;;;4964902;28;20027;-73
2022/03/04 05:00:53;;;;;;;69.03;41.28;;;3.80;93.50;;;;;;4963410;28;20041;-73
2022/03/04 05:03:28;;;;;;;75.30;43.45;;;3.60;93.50;;;;;;4964861;28;20066;-73
2022/03/04 05:05:55;;;;;;;72.60;41.00;;;3.60;93.60;;;;;;4964158;28;20058;-73
2022/03/04 05:08:21;;;;;;;72.20;41.53;;;3.30;93.80;;;;;;4964611;28;20045;-73
2022/03/04 05:10:47;;;;;;;77.63;41.80;;;3.20;94.20;;;;;;4966275;28;20082;-73
2022/03/04 05:13:15;;;;;;;73.72;41.08;;;3.30;94.20;;;;;;4964851;28;20039;-73
2022/03/04 05:15:41;;;;;;;84.32;44.63;;;3.30;94.20;;;;;;4965088;28;20042;-73
2022/03/04 05:18:08;;;;;;;74.45;41.92;;;3.30;94.20;;;;;;4964573;28;20046;-73
2022/03/04 05:20:34;;;;;;;76.10;42.17;;;3.30;94.10;;;;;;4964428;28;20045;-73
2022/03/04 05:23:00;;;;;;;75.00;43.50;;;3.40;94.20;;;;;;4964233;28;20030;-73
2022/03/04 05:25:25;;;;;;;69.03;39.60;;;3.50;94.00;;;;;;4964129;28;20031;-73
2022/03/04 05:27:51;;;;;;;70.63;39.70;;;3.50;93.90;;;;;;4964842;28;20109;-74
2022/03/04 05:30:17;;;;;;;72.65;39.85;;;3.60;93.70;;;;;;4966536;28;20122;-74
2022/03/04 05:32:42;;;;;;;74.85;42.58;;;3.50;93.80;;;;;;4964270;28;20082;-74
2022/03/04 05:35:08;;;;;;;76.63;43.97;;;3.40;94.00;;;;;;4964192;28;20143;-73
2022/03/04 05:37:34;;;;;;;72.60;40.42;;;3.40;94.00;;;;;;4964890;28;20029;-73
2022/03/04 05:39:59;;;;;;;75.90;41.67;;;3.30;94.30;;;;;;4964240;28;20405;-73
2022/03/04 05:42:26;;;;;;;81.93;43.65;;;3.20;94.30;;;;;;4963569;28;20039;-74
2022/03/04 05:44:52;;;;;;;76.57;41.03;;;3.00;94.50;;;;;;4963859;28;20019;-74
2022/03/04 05:47:17;;;;;;;72.55;40.45;;;3.00;94.50;;;;;;4963904;28;20695;-74
2022/03/04 05:49:43;;;;;;;73.95;39.38;;;2.90;94.60;;;;;;4963145;28;20130;-74
2022/03/04 05:52:09;;;;;;;78.10;43.58;;;2.90;94.80;;;;;;4970267;28;20042;-73
2022/03/04 05:54:36;;;;;;;74.18;40.88;;;3.00;94.90;;;;;;4964010;28;20129;-73
2022/03/04 05:57:01;;;;;;;74.55;40.58;;;3.20;94.50;;;;;;4964312;28;20045;-74
2022/03/04 05:59:27;;;;;;;74.93;40.80;;;3.30;94.20;;;;;;4963784;28;20944;-73
2022/03/04 06:01:53;;;;;;;82.22;43.10;;;3.10;94.40;;;;;;4964025;28;20489;-74
2022/03/04 06:04:18;;;;;;;79.65;43.95;;;3.00;94.70;;;;;;4964596;28;20031;-73
2022/03/04 06:06:44;;;;;;;77.55;41.47;;;3.10;94.70;;;;;;4962541;28;20524;-73
2022/03/04 06:09:10;;;;;;;77.85;42.72;;;3.10;94.60;;;;;;4963987;28;20034;-73
2022/03/04 06:11:35;;;;;;;81.40;42.10;;;3.10;94.90;;;;;;4963439;28;20026;-73
2022/03/04 06:14:01;;;;;;;82.82;43.50;;;3.10;94.90;;;;;;4959701;28;20129;-73
2022/03/04 06:16:27;;;;;;;73.15;41.80;;;3.00;94.90;;;;;;4963973;28;20481;-73
2022/03/04 06:18:53;;;;;;;78.85;42.45;;;3.10;95.00;;;;;;4960917;28;20070;-73
2022/03/04 06:21:18;;;;;;;74.25;43.63;;;3.10;94.90;;;;;;4961968;28;20035;-74
2022/03/04 06:23:44;;;;;;;77.05;43.05;;;3.40;94.80;;;;;;4956869;28;20027;-73
2022/03/04 06:26:10;;;;;;;79.38;43.35;;;3.40;94.70;;;;;;4963646;28;20441;-73
2022/03/04 06:28:36;;;;;;;78.95;42.88;;;3.60;94.40;;;;;;4963834;28;20073;-76
2022/03/04 06:31:03;;;;;;;73.65;40.72;;;3.70;94.00;;;;;;4966983;28;20147;-74
2022/03/04 06:33:36;;;;;;;77.03;41.50;;;3.60;94.10;;;;;;4957085;28;20043;-75
2022/03/04 06:36:14;;;;;;;72.22;39.00;;;3.50;94.20;;;;;;4961550;28;20039;-73
2022/03/04 06:38:43;;;;;;;76.60;44.05;;;3.70;95.20;;;;;;4963365;28;20031;-74
2022/03/04 06:41:10;;;;;;;74.57;41.10;;;3.60;94.50;;;;;;4963091;28;20097;-74
2022/03/04 06:43:36;;;;;;;71.75;40.30;;;3.40;94.60;;;;;;4964030;28;20019;-74
2022/03/04 06:46:04;;;;;;;72.38;41.90;;;3.40;94.80;;;;;;4962777;28;20370;-75
2022/03/04 06:48:31;;;;;;;66.60;42.17;;;3.40;94.80;;;;;;4964300;28;20417;-74
2022/03/04 06:50:56;;;;;;;66.60;38.92;;;3.60;94.70;;;;;;4963427;28;20035;-73
2022/03/04 06:53:23;;;;;;;69.75;38.33;;;3.60;94.60;;;;;;4964162;28;20031;-74
2022/03/04 06:55:49;;;;;;;70.75;40.70;;;3.70;94.60;;;;;;4963218;28;20041;-77
2022/03/04 06:58:16;;;;;;;69.35;39.67;;;3.70;94.60;;;;;;4963560;28;20031;-74
2022/03/04 07:00:41;;;;;;;72.50;40.70;;;3.60;94.70;;;;;;4963414;28;20080;-75
2022/03/04 07:03:08;;;;;;;74.43;41.63;;;3.60;94.90;;;;;;4963875;28;20034;-73
2022/03/04 07:05:34;;;;;;;70.32;37.60;;;3.70;94.70;;;;;;4964541;28;20703;-73
2022/03/04 07:08:00;;;;;;;78.50;44.30;;;3.80;94.60;;;;;;4966490;28;20046;-74
2022/03/04 07:10:25;;;;;;;63.78;37.45;;;3.80;94.80;;;;;;4968308;28;20517;-74
2022/03/04 07:12:51;;;;;;;72.57;40.40;;;3.70;94.90;;;;;;4970195;28;20027;-75
2022/03/04 07:15:18;;;;;;;72.05;42.38;;;3.80;95.10;;;;;;4967543;28;20035;-75
2022/03/04 07:17:43;;;;;;;73.57;39.70;;;3.90;94.90;;;;;;4967366;28;20520;-76
2022/03/04 07:20:09;;;;;;;74.47;40.83;;;3.90;94.90;;;;;;4965250;28;20031;-75
2022/03/04 07:22:35;;;;;;;68.80;39.65;;;3.90;94.40;;;;;;4966691;28;20038;-75
2022/03/04 07:25:08;;;;;;;78.60;41.97;;;4.20;94.30;;;;;;4967137;28;20046;-75
2022/03/04 07:27:35;;;;;;;68.90;39.45;;;4.20;94.40;;;;;;4967027;28;20050;-75
2022/03/04 07:30:03;;;;;;;66.28;37.70;;;4.30;94.00;;;;;;4966535;28;20658;-75
2022/03/04 07:32:28;;;;;;;69.57;40.22;;;4.40;93.80;;;;;;4966769;28;20030;-77
2022/03/04 07:34:54;;;;;;;71.88;41.30;;;4.20;94.50;;;;;;4967162;28;20039;-75
2022/03/04 07:37:20;;;;;;;68.82;41.30;;;4.10;94.60;;;;;;4966616;28;20042;-75
2022/03/04 07:39:45;;;;;;;76.88;40.13;;;4.20;94.40;;;;;;4967001;28;20034;-76
2022/03/04 07:42:11;;;;;;;69.22;40.08;;;4.40;94.30;;;;;;4966197;28;20045;-75
2022/03/04 07:44:37;;;;;;;76.65;43.00;;;4.50;94.40;;;;;;4966613;28;20118;-76
2022/03/04 07:47:02;;;;;;;72.50;42.88;;;4.60;94.50;;;;;;4966664;28;20089;-75
2022/03/04 07:49:28;;;;;;;76.32;42.78;;;4.40;94.50;;;;;;4965789;28;20093;-76
2022/03/04 07:51:54;;;;;;;75.07;42.72;;;4.30;94.90;;;;;;4966518;28;20439;-75
2022/03/04 07:54:20;;;;;;;78.95;44.78;;;4.10;95.20;;;;;;4966214;28;21012;-75
2022/03/04 07:56:45;;;;;;;76.50;45.03;;;4.10;95.20;;;;;;4966497;28;20501;-75
2022/03/04 07:59:11;;;;;;;76.65;43.88;;;4.10;95.20;;;;;;4966053;28;20095;-75
2022/03/04 08:01:37;;;;;;;71.32;42.75;;;4.20;95.30;;;;;;4966375;28;20035;-75
2022/03/04 08:04:05;;;;;;;76.10;42.10;;;4.40;95.10;;;;;;4966003;28;20038;-75
2022/03/04 08:06:31;;;;;;;77.22;43.42;;;4.40;95.00;;;;;;4966604;28;20051;-76
2022/03/04 08:08:56;;;;;;;70.10;41.17;;;4.50;94.90;;;;;;4967164;28;20991;-77
2022/03/04 08:11:22;;;;;;;70.30;43.72;;;4.50;94.40;;;;;;4966740;28;20397;-75
2022/03/04 08:13:48;;;;;;;76.38;42.72;;;4.50;94.30;;;;;;4966768;28;20046;-79
2022/03/04 08:16:13;;;;;;;69.47;40.90;;;4.50;94.30;;;;;;4966045;28;20169;-76
2022/03/04 08:18:39;;;;;;;69.88;41.40;;;4.40;94.40;;;;;;4965415;28;20520;-75
2022/03/04 08:21:05;;;;;;;78.03;41.42;;;4.40;94.70;;;;;;4965145;28;20042;-75
2022/03/04 08:23:31;;;;;;;69.70;41.08;;;4.40;94.50;;;;;;4958013;28;20031;-75
2022/03/04 08:26:02;;;;;;;71.80;41.63;;;4.40;94.50;;;;;;4965357;28;20043;-75
2022/03/04 08:28:28;;;;;;;70.10;40.28;;;4.40;94.50;;;;;;4965554;28;20031;-75
2022/03/04 08:30:53;;;;;;;78.93;43.97;;;4.50;94.90;;;;;;4965144;28;20042;-75
2022/03/04 08:33:19;;;;;;;76.75;43.05;;;4.60;94.90;;;;;;4965068;28;20058;-75
2022/03/04 08:35:45;;;;;;;77.10;42.88;;;4.60;94.50;;;;;;4965161;28;20045;-75
2022/03/04 08:38:10;;;;;;;70.57;42.92;;;4.70;94.20;;;;;;4965635;28;20042;-75
2022/03/04 08:40:36;;;;;;;82.35;42.83;;;4.70;94.30;;;;;;4965404;28;20542;-74
2022/03/04 08:43:02;;;;;;;70.57;42.15;;;4.70;94.10;;;;;;4965332;28;20519;-75
2022/03/04 08:45:27;;;;;;;73.45;42.53;;;4.80;94.00;;;;;;4965212;28;20041;-74
2022/03/04 08:47:53;;;;;;;74.40;43.10;;;5.00;94.10;;;;;;4965416;28;20022;-75
2022/03/04 08:50:19;;;;;;;70.60;40.70;;;5.10;94.00;;;;;;4960478;28;20045;-75
2022/03/04 08:52:45;;;;;;;69.50;41.58;;;5.20;93.70;;;;;;4964388;28;20604;-76
2022/03/04 08:55:17;;;;;;;66.65;39.90;;;5.40;93.40;;;;;;4963346;28;20093;-75
2022/03/04 08:57:44;;;;;;;71.82;40.60;;;5.30;93.20;;;;;;4964534;28;20109;-76
2022/03/04 09:00:10;;;;;;;76.63;42.45;;;5.10;93.30;;;;;;4964799;28;20045;-75
2022/03/04 09:02:36;;;;;;;72.68;39.22;;;5.30;93.40;;;;;;4964257;28;20462;-75
2022/03/04 09:05:02;;;;;;;72.63;41.35;;;5.10;93.20;;;;;;4965347;28;20030;-75
2022/03/04 09:07:28;;;;;;;75.20;43.78;;;5.10;93.60;;;;;;4963690;28;20066;-75
2022/03/04 09:09:53;;;;;;;70.05;41.15;;;5.20;93.60;;;;;;4965650;28;20101;-75
2022/03/04 09:12:19;;;;;;;71.72;41.00;;;5.30;93.40;;;;;;4965349;28;20032;-75
2022/03/04 09:14:46;;;;;;;75.68;42.28;;;5.30;93.40;;;;;;4965668;28;20074;-75
2022/03/04 09:17:11;;;;;;;86.28;43.25;;;5.40;93.00;;;;;;4965335;28;20401;-74
2022/03/04 09:19:37;;;;;;;80.70;43.97;;;5.50;93.30;;;;;;4964896;28;20093;-75
2022/03/04 09:22:03;;;;;;;74.68;42.65;;;5.60;93.20;;;;;;4964861;28;20495;-75
2022/03/04 09:24:29;;;;;;;71.72;41.78;;;5.80;93.20;;;;;;4964917;28;20031;-74
2022/03/04 09:26:55;;;;;;;70.40;40.72;;;5.90;92.80;;;;;;4965734;28;20054;-75
2022/03/04 09:29:21;;;;;;;74.57;40.92;;;5.90;92.60;;;;;;4964338;28;20038;-74
2022/03/04 09:31:47;;;;;;;73.78;41.22;;;5.90;92.50;;;;;;4965005;28;20035;-74
2022/03/04 09:34:13;;;;;;;74.38;41.60;;;5.90;92.60;;;;;;4964094;28;20082;-75
2022/03/04 09:36:39;;;;;;;73.22;43.40;;;6.10;92.50;;;;;;4964608;28;20031;-75
2022/03/04 09:39:04;;;;;;;72.93;43.15;;;6.20;92.30;;;;;;4964570;28;20034;-75
2022/03/04 09:41:30;;;;;;;70.38;40.88;;;6.30;92.00;;;;;;4964426;28;20046;-74
2022/03/04 09:43:56;;;;;;;72.97;42.55;;;6.50;92.10;;;;;;4965100;28;20035;-74
2022/03/04 09:46:23;;;;;;;76.70;42.53;;;6.50;91.80;;;;;;4964585;28;20082;-75
2022/03/04 09:48:50;;;;;;;73.22;43.53;;;6.50;91.90;;;;;;4965085;28;20030;-75
2022/03/04 09:51:16;;;;;;;66.70;40.78;;;6.50;91.90;;;;;;4964877;28;20078;-75
2022/03/04 09:53:42;;;;;;;73.75;41.55;;;6.50;91.50;;;;;;4965150;28;20047;-74
2022/03/04 09:56:07;;;;;;;73.78;44.45;;;6.50;91.50;;;;;;4964774;28;20114;-75
2022/03/04 09:58:33;;;;;;;76.88;44.50;;;6.50;91.70;;;;;;4964741;28;20086;-75
2022/03/04 10:00:58;;;;;;;68.97;41.30;;;6.60;91.80;;;;;;4965065;28;20039;-74
2022/03/04 10:03:30;;;;;;;69.32;41.75;;;6.80;92.00;;;;;;4965073;28;20404;-74
2022/03/04 10:05:58;;;;;;;79.60;43.20;;;6.80;91.20;;;;;;4964205;28;20075;-74
2022/03/04 10:08:24;;;;;;;72.57;41.95;;;6.80;91.50;;;;;;4964749;28;21016;-75
2022/03/04 10:10:58;;;;;;;73.15;43.45;;;6.90;91.10;;;;;;4964070;28;20035;-74
2022/03/04 10:13:47;;;;;;;76.50;44.40;;;7.00;91.30;;;;;;4964181;28;20035;-75
2022/03/04 10:16:22;;;;;;;71.55;42.10;;;7.30;91.30;;;;;;4963952;28;20130;-75
2022/03/04 10:19:09;;;;;;;71.78;45.75;;;7.30;90.60;;;;;;4964375;28;20038;-76
2022/03/04 10:21:49;;;;;;;85.05;46.00;;;7.40;90.50;;;;;;4962550;28;20508;-77
2022/03/04 10:24:26;;;;;;;79.43;45.45;;;7.50;90.60;;;;;;4963856;28;20043;-75
2022/03/04 10:27:12;;;;;;;74.80;44.25;;;7.60;90.40;;;;;;4964957;28;20497;-74
2022/03/04 10:29:43;;;;;;;74.63;42.95;;;7.50;89.90;;;;;;4964900;28;20125;-75
2022/03/04 10:32:11;;;;;;;76.50;45.35;;;7.70;89.60;;;;;;4964191;28;20050;-75
2022/03/04 10:34:57;;;;;;;73.75;44.22;;;7.70;90.10;;;;;;4964132;28;20600;-74
2022/03/04 10:37:43;;;;;;;72.85;42.42;;;8.00;89.80;;;;;;4963660;28;20050;-74
2022/03/04 10:40:15;;;;;;;76.20;46.20;;;7.90;89.20;;;;;;4965600;28;20039;-74
2022/03/04 10:42:51;;;;;;;75.50;43.00;;;8.00;89.60;;;;;;4968436;28;20039;-75
2022/03/04 10:45:22;;;;;;;74.88;44.67;;;8.10;89.50;;;;;;4967907;28;20090;-75
2022/03/04 10:48:03;;;;;;;79.15;45.67;;;8.30;89.40;;;;;;4966717;28;20071;-75
2022/03/04 10:50:40;;;;;;;74.82;45.70;;;8.50;88.20;;;;;;4964229;28;20134;-74
2022/03/04 10:53:06;;;;;;;73.38;44.75;;;8.70;88.60;;;;;;4967094;28;20065;-74
2022/03/04 10:55:35;;;;;;;74.18;45.50;;;8.60;87.00;;;;;;4966189;28;20133;-75
2022/03/04 10:58:07;;;;;;;77.30;42.60;;;8.70;87.90;;;;;;4966523;28;20490;-75
2022/03/04 11:00:37;;;;;;;76.43;44.33;;;8.70;87.10;;;;;;4966956;28;20042;-77
2022/03/04 11:03:06;;;;;;;76.28;45.70;;;8.70;86.30;;;;;;4967222;28;20049;-74
2022/03/04 11:05:32;;;;;;;73.03;43.25;;;8.90;87.20;;;;;;4966290;28;20050;-75
2022/03/04 11:07:58;;;;;;;75.20;44.60;;;8.90;85.60;;;;;;4967216;28;20117;-74
2022/03/04 11:10:24;;;;;;;72.82;45.17;;;9.00;86.00;;;;;;4967020;28;20196;-75
2022/03/04 11:12:53;;;;;;;79.25;45.58;;;9.10;85.60;;;;;;4966891;28;20069;-77
2022/03/04 11:15:20;;;;;;;73.32;43.42;;;9.00;85.20;;;;;;4966609;28;20047;-74
2022/03/04 11:17:47;;;;;;;72.53;43.30;;;9.50;85.10;;;;;;4967658;28;20035;-77
2022/03/04 11:20:14;;;;;;;70.30;43.40;;;9.70;84.10;;;;;;4960428;28;20069;-75
2022/03/04 11:22:42;;;;;;;70.35;43.92;;;9.90;84.20;;;;;;4967028;28;20636;-75
2022/03/04 11:25:14;;;;;;;71.70;44.60;;;10.00;83.30;;;;;;4966819;28;20034;-75
2022/03/04 11:27:43;;;;;;;70.88;43.40;;;10.20;83.40;;;;;;4966902;28;20038;-76
2022/03/04 11:30:35;;;;;;;72.30;42.55;;;9.80;82.80;;;;;;4966849;28;20049;-75
2022/03/04 11:33:15;;;;;;;70.15;42.15;;;9.70;82.50;;;;;;4966719;28;20035;-76
2022/03/04 11:35:40;;;;;;;71.88;43.13;;;10.00;82.10;;;;;;4966259;28;20072;-75
2022/03/04 11:38:06;;;;;;;64.05;41.05;;;10.00;82.90;;;;;;4965568;28;20505;-75
2022/03/04 11:40:35;;;;;;;70.95;42.63;;;10.30;82.40;;;;;;4965074;28;20077;-74
2022/03/04 11:43:02;;;;;;;68.90;40.72;;;10.30;81.60;;;;;;4965985;28;20043;-75
2022/03/04 11:45:37;;;;;;;66.32;39.65;;;10.50;81.30;;;;;;4966749;28;20054;-75
2022/03/04 11:48:26;;;;;;;63.58;39.30;;;10.50;79.90;;;;;;4965783;28;20504;-74
2022/03/04 11:50:52;;;;;;;65.50;39.60;;;10.40;79.60;;;;;;4963677;28;20029;-74
2022/03/04 11:53:23;;;;;;;66.53;41.55;;;10.60;81.20;;;;;;4965573;28;20062;-74
2022/03/04 11:56:07;;;;;;;61.35;39.65;;;10.80;80.20;;;;;;4966383;28;20030;-74
2022/03/04 11:58:54;;;;;;;62.53;40.45;;;10.90;80.10;;;;;;4966256;28;20152;-74
2022/03/04 12:01:29;;;;;;;61.25;39.75;;;11.10;79.40;;;;;;4964996;28;20038;-74
2022/03/04 12:04:05;;;;;;;60.72;37.35;;;11.00;78.60;;;;;;4964449;28;20027;-74
2022/03/04 12:06:31;;;;;;;59.78;36.80;;;11.00;78.00;;;;;;4965280;28;20138;-74
2022/03/04 12:08:58;;;;;;;48.95;30.60;;;11.10;77.50;;;;;;4965257;28;20041;-74
2022/03/04 12:11:24;;;;;;;51.28;32.30;;;11.40;75.20;;;;;;4967850;28;20101;-74
2022/03/04 12:14:07;;;;;;;62.80;31.90;;;11.60;74.80;;;;;;4965738;28;20058;-75
2022/03/04 12:16:49;;;;;;;51.08;31.63;;;11.70;75.10;;;;;;4967110;28;20065;-72
2022/03/04 12:19:32;;;;;;;47.70;28.83;;;11.90;74.50;;;;;;4968574;28;20034;-73
2022/03/04 12:21:58;;;;;;;54.22;30.88;;;11.90;73.40;;;;;;4968722;28;20481;-73
2022/03/04 12:24:36;;;;;;;49.28;29.40;;;11.90;73.60;;;;;;4968797;28;20125;-73
2022/03/04 12:27:03;;;;;;;49.75;28.13;;;12.00;72.80;;;;;;4968363;28;20134;-73
2022/03/04 12:29:47;;;;;;;36.88;25.00;;;11.80;72.20;;;;;;4967649;28;20031;-73
2022/03/04 12:32:13;;;;;;;40.17;25.10;;;11.90;71.60;;;;;;4967485;28;20035;-73
2022/03/04 12:34:52;;;;;;;34.88;21.50;;;11.90;69.60;;;;;;4967156;28;20047;-73
2022/03/04 12:37:18;;;;;;;41.97;24.38;;;11.80;66.80;;;;;;4964568;28;20065;-73